sensor_id;sensor_type;location;lat;lon;timestamp;P1;durP1;ratioP1;P2;durP2;ratioP2
45408;SDS011;31162;51.076;3.784;2023-04-24T00:00:15;24.38;;;19.60;;
45408;SDS011;31162;51.076;3.784;2023-04-24T00:02:42;22.02;;;19.67;;
45408;SDS011;31162;51.076;3.784;2023-04-24T00:05:12;26.23;;;20.75;;
45408;SDS011;31162;51.076;3.784;2023-04-24T00:07:39;24.80;;;19.80;;
45408;SDS011;31162;51.076;3.784;2023-04-24T00:10:08;19.23;;;17.38;;
45408;SDS011;31162;51.076;3.784;2023-04-24T00:12:34;20.33;;;18.10;;
45408;SDS011;31162;51.076;3.784;2023-04-24T00:15:00;19.58;;;17.48;;
45408;SDS011;31162;51.076;3.784;2023-04-24T00:17:26;23.75;;;18.83;;
45408;SDS011;31162;51.076;3.784;2023-04-24T00:19:52;22.70;;;18.67;;
45408;SDS011;31162;51.076;3.784;2023-04-24T00:22:23;21.17;;;19.00;;
45408;SDS011;31162;51.076;3.784;2023-04-24T00:24:50;24.98;;;19.23;;
45408;SDS011;31162;51.076;3.784;2023-04-24T00:27:15;22.65;;;19.33;;
45408;SDS011;31162;51.076;3.784;2023-04-24T00:29:41;21.08;;;18.88;;
45408;SDS011;31162;51.076;3.784;2023-04-24T00:32:07;24.77;;;19.05;;
45408;SDS011;31162;51.076;3.784;2023-04-24T00:34:32;20.67;;;18.48;;
45408;SDS011;31162;51.076;3.784;2023-04-24T00:36:58;19.40;;;17.23;;
45408;SDS011;31162;51.076;3.784;2023-04-24T00:39:24;24.13;;;18.65;;
45408;SDS011;31162;51.076;3.784;2023-04-24T00:41:50;20.75;;;17.83;;
45408;SDS011;31162;51.076;3.784;2023-04-24T00:44:16;19.27;;;17.38;;
45408;SDS011;31162;51.076;3.784;2023-04-24T00:46:42;19.23;;;17.23;;
45408;SDS011;31162;51.076;3.784;2023-04-24T00:49:08;18.73;;;17.02;;
45408;SDS011;31162;51.076;3.784;2023-04-24T00:51:33;17.75;;;15.88;;
45408;SDS011;31162;51.076;3.784;2023-04-24T00:54:00;16.65;;;14.95;;
45408;SDS011;31162;51.076;3.784;2023-04-24T00:56:28;16.83;;;15.18;;
45408;SDS011;31162;51.076;3.784;2023-04-24T00:58:54;15.02;;;13.63;;
45408;SDS011;31162;51.076;3.784;2023-04-24T01:01:20;13.80;;;12.50;;
45408;SDS011;31162;51.076;3.784;2023-04-24T01:03:47;13.60;;;12.27;;
45408;SDS011;31162;51.076;3.784;2023-04-24T01:06:18;13.50;;;12.10;;
45408;SDS011;31162;51.076;3.784;2023-04-24T01:08:45;12.52;;;11.27;;
45408;SDS011;31162;51.076;3.784;2023-04-24T01:11:12;14.57;;;11.73;;
45408;SDS011;31162;51.076;3.784;2023-04-24T01:13:39;12.45;;;11.30;;
45408;SDS011;31162;51.076;3.784;2023-04-24T01:16:05;13.38;;;12.10;;
45408;SDS011;31162;51.076;3.784;2023-04-24T01:18:31;13.57;;;12.38;;
45408;SDS011;31162;51.076;3.784;2023-04-24T01:20:57;14.98;;;13.38;;
45408;SDS011;31162;51.076;3.784;2023-04-24T01:23:23;16.33;;;14.63;;
45408;SDS011;31162;51.076;3.784;2023-04-24T01:25:49;16.42;;;14.73;;
45408;SDS011;31162;51.076;3.784;2023-04-24T01:28:16;17.40;;;15.65;;
45408;SDS011;31162;51.076;3.784;2023-04-24T01:30:43;16.50;;;15.00;;
45408;SDS011;31162;51.076;3.784;2023-04-24T01:33:09;16.33;;;14.60;;
45408;SDS011;31162;51.076;3.784;2023-04-24T01:35:35;16.38;;;14.65;;
45408;SDS011;31162;51.076;3.784;2023-04-24T01:38:02;17.35;;;15.50;;
45408;SDS011;31162;51.076;3.784;2023-04-24T01:40:28;16.25;;;14.65;;
45408;SDS011;31162;51.076;3.784;2023-04-24T01:42:53;17.05;;;15.35;;
45408;SDS011;31162;51.076;3.784;2023-04-24T01:45:19;17.80;;;15.98;;
45408;SDS011;31162;51.076;3.784;2023-04-24T01:47:45;18.23;;;16.42;;
45408;SDS011;31162;51.076;3.784;2023-04-24T01:50:14;18.77;;;16.85;;
45408;SDS011;31162;51.076;3.784;2023-04-24T01:52:40;20.27;;;18.15;;
45408;SDS011;31162;51.076;3.784;2023-04-24T01:55:06;20.40;;;18.30;;
45408;SDS011;31162;51.076;3.784;2023-04-24T01:57:32;20.65;;;18.15;;
45408;SDS011;31162;51.076;3.784;2023-04-24T01:59:59;20.60;;;18.40;;
45408;SDS011;31162;51.076;3.784;2023-04-24T02:02:24;22.10;;;19.88;;
45408;SDS011;31162;51.076;3.784;2023-04-24T02:04:52;22.70;;;20.33;;
45408;SDS011;31162;51.076;3.784;2023-04-24T02:07:19;22.15;;;19.95;;
45408;SDS011;31162;51.076;3.784;2023-04-24T02:09:45;22.50;;;20.20;;
45408;SDS011;31162;51.076;3.784;2023-04-24T02:12:11;23.83;;;21.48;;
45408;SDS011;31162;51.076;3.784;2023-04-24T02:14:36;23.90;;;21.45;;
45408;SDS011;31162;51.076;3.784;2023-04-24T02:17:02;23.75;;;21.35;;
45408;SDS011;31162;51.076;3.784;2023-04-24T02:19:28;23.70;;;21.30;;
45408;SDS011;31162;51.076;3.784;2023-04-24T02:21:54;23.65;;;21.25;;
45408;SDS011;31162;51.076;3.784;2023-04-24T02:24:19;23.50;;;21.15;;
45408;SDS011;31162;51.076;3.784;2023-04-24T02:26:45;23.98;;;21.65;;
45408;SDS011;31162;51.076;3.784;2023-04-24T02:29:11;24.05;;;21.67;;
45408;SDS011;31162;51.076;3.784;2023-04-24T02:31:36;23.65;;;21.30;;
45408;SDS011;31162;51.076;3.784;2023-04-24T02:34:05;23.70;;;21.33;;
45408;SDS011;31162;51.076;3.784;2023-04-24T02:36:31;24.38;;;21.85;;
45408;SDS011;31162;51.076;3.784;2023-04-24T02:38:57;24.30;;;21.80;;
45408;SDS011;31162;51.076;3.784;2023-04-24T02:41:22;24.13;;;21.60;;
45408;SDS011;31162;51.076;3.784;2023-04-24T02:43:48;22.58;;;20.17;;
45408;SDS011;31162;51.076;3.784;2023-04-24T02:46:13;20.52;;;18.42;;
45408;SDS011;31162;51.076;3.784;2023-04-24T02:48:39;20.42;;;17.35;;
45408;SDS011;31162;51.076;3.784;2023-04-24T02:51:05;19.05;;;16.70;;
45408;SDS011;31162;51.076;3.784;2023-04-24T02:53:31;18.60;;;16.30;;
45408;SDS011;31162;51.076;3.784;2023-04-24T02:55:57;16.77;;;14.50;;
45408;SDS011;31162;51.076;3.784;2023-04-24T02:58:23;14.70;;;12.00;;
45408;SDS011;31162;51.076;3.784;2023-04-24T03:00:53;12.77;;;11.48;;
45408;SDS011;31162;51.076;3.784;2023-04-24T03:03:20;12.48;;;9.68;;
45408;SDS011;31162;51.076;3.784;2023-04-24T03:05:46;11.90;;;8.88;;
45408;SDS011;31162;51.076;3.784;2023-04-24T03:08:12;10.80;;;8.20;;
45408;SDS011;31162;51.076;3.784;2023-04-24T03:10:39;12.32;;;7.97;;
45408;SDS011;31162;51.076;3.784;2023-04-24T03:13:05;12.68;;;7.82;;
45408;SDS011;31162;51.076;3.784;2023-04-24T03:15:30;8.93;;;7.13;;
45408;SDS011;31162;51.076;3.784;2023-04-24T03:17:56;9.63;;;7.13;;
45408;SDS011;31162;51.076;3.784;2023-04-24T03:20:22;11.70;;;6.78;;
45408;SDS011;31162;51.076;3.784;2023-04-24T03:22:48;8.93;;;7.10;;
45408;SDS011;31162;51.076;3.784;2023-04-24T03:25:13;10.70;;;7.50;;
45408;SDS011;31162;51.076;3.784;2023-04-24T03:27:39;12.40;;;8.48;;
45408;SDS011;31162;51.076;3.784;2023-04-24T03:30:06;14.20;;;9.73;;
45408;SDS011;31162;51.076;3.784;2023-04-24T03:32:35;21.55;;;16.52;;
45408;SDS011;31162;51.076;3.784;2023-04-24T03:35:00;17.23;;;11.27;;
45408;SDS011;31162;51.076;3.784;2023-04-24T03:37:26;15.88;;;14.25;;
45408;SDS011;31162;51.076;3.784;2023-04-24T03:39:52;16.30;;;13.40;;
45408;SDS011;31162;51.076;3.784;2023-04-24T03:42:20;16.60;;;13.05;;
45408;SDS011;31162;51.076;3.784;2023-04-24T03:44:45;21.52;;;13.38;;
45408;SDS011;31162;51.076;3.784;2023-04-24T03:47:11;18.55;;;13.38;;
45408;SDS011;31162;51.076;3.784;2023-04-24T03:49:37;16.67;;;13.57;;
45408;SDS011;31162;51.076;3.784;2023-04-24T03:52:02;19.00;;;13.50;;
45408;SDS011;31162;51.076;3.784;2023-04-24T03:54:28;20.27;;;14.93;;
45408;SDS011;31162;51.076;3.784;2023-04-24T03:56:54;18.63;;;14.68;;
45408;SDS011;31162;51.076;3.784;2023-04-24T03:59:19;21.52;;;15.25;;
45408;SDS011;31162;51.076;3.784;2023-04-24T04:01:45;21.13;;;15.50;;
45408;SDS011;31162;51.076;3.784;2023-04-24T04:04:11;29.27;;;23.65;;
45408;SDS011;31162;51.076;3.784;2023-04-24T04:06:39;25.17;;;14.18;;
45408;SDS011;31162;51.076;3.784;2023-04-24T04:09:07;20.55;;;15.15;;
45408;SDS011;31162;51.076;3.784;2023-04-24T04:11:33;22.80;;;15.55;;
45408;SDS011;31162;51.076;3.784;2023-04-24T04:14:00;24.08;;;15.65;;
45408;SDS011;31162;51.076;3.784;2023-04-24T04:16:26;21.52;;;15.60;;
45408;SDS011;31162;51.076;3.784;2023-04-24T04:18:51;20.20;;;15.20;;
45408;SDS011;31162;51.076;3.784;2023-04-24T04:21:17;21.65;;;15.98;;
45408;SDS011;31162;51.076;3.784;2023-04-24T04:23:43;22.98;;;14.98;;
45408;SDS011;31162;51.076;3.784;2023-04-24T04:26:08;17.52;;;14.43;;
45408;SDS011;31162;51.076;3.784;2023-04-24T04:28:34;21.00;;;14.70;;
45408;SDS011;31162;51.076;3.784;2023-04-24T04:31:00;29.52;;;20.63;;
45408;SDS011;31162;51.076;3.784;2023-04-24T04:33:26;22.80;;;15.70;;
45408;SDS011;31162;51.076;3.784;2023-04-24T04:35:51;20.42;;;14.65;;
45408;SDS011;31162;51.076;3.784;2023-04-24T04:38:20;18.00;;;14.40;;
45408;SDS011;31162;51.076;3.784;2023-04-24T04:40:46;18.15;;;13.98;;
45408;SDS011;31162;51.076;3.784;2023-04-24T04:43:12;18.98;;;13.68;;
45408;SDS011;31162;51.076;3.784;2023-04-24T04:45:41;18.83;;;13.63;;
45408;SDS011;31162;51.076;3.784;2023-04-24T04:48:08;22.58;;;14.40;;
45408;SDS011;31162;51.076;3.784;2023-04-24T04:50:37;18.23;;;13.95;;
45408;SDS011;31162;51.076;3.784;2023-04-24T04:53:05;22.88;;;14.40;;
45408;SDS011;31162;51.076;3.784;2023-04-24T04:55:34;15.88;;;14.13;;
45408;SDS011;31162;51.076;3.784;2023-04-24T04:57:59;23.15;;;15.00;;
45408;SDS011;31162;51.076;3.784;2023-04-24T05:00:25;21.65;;;15.75;;
45408;SDS011;31162;51.076;3.784;2023-04-24T05:02:52;22.00;;;15.27;;
45408;SDS011;31162;51.076;3.784;2023-04-24T05:05:18;18.77;;;14.70;;
45408;SDS011;31162;51.076;3.784;2023-04-24T05:07:43;22.00;;;15.65;;
45408;SDS011;31162;51.076;3.784;2023-04-24T05:10:09;25.80;;;18.20;;
45408;SDS011;31162;51.076;3.784;2023-04-24T05:12:35;20.73;;;16.23;;
45408;SDS011;31162;51.076;3.784;2023-04-24T05:15:01;21.05;;;15.38;;
45408;SDS011;31162;51.076;3.784;2023-04-24T05:17:28;20.23;;;15.93;;
45408;SDS011;31162;51.076;3.784;2023-04-24T05:19:56;23.95;;;17.77;;
45408;SDS011;31162;51.076;3.784;2023-04-24T05:22:21;21.30;;;17.30;;
45408;SDS011;31162;51.076;3.784;2023-04-24T05:24:48;26.88;;;16.98;;
45408;SDS011;31162;51.076;3.784;2023-04-24T05:27:14;25.70;;;16.83;;
45408;SDS011;31162;51.076;3.784;2023-04-24T05:29:40;24.75;;;16.80;;
45408;SDS011;31162;51.076;3.784;2023-04-24T05:32:06;23.35;;;17.20;;
45408;SDS011;31162;51.076;3.784;2023-04-24T05:34:31;21.65;;;17.23;;
45408;SDS011;31162;51.076;3.784;2023-04-24T05:36:57;24.00;;;16.73;;
45408;SDS011;31162;51.076;3.784;2023-04-24T05:39:23;24.75;;;17.15;;
45408;SDS011;31162;51.076;3.784;2023-04-24T05:41:50;28.40;;;17.70;;
45408;SDS011;31162;51.076;3.784;2023-04-24T05:44:16;27.02;;;17.88;;
45408;SDS011;31162;51.076;3.784;2023-04-24T05:46:41;26.42;;;18.08;;
45408;SDS011;31162;51.076;3.784;2023-04-24T05:49:07;28.67;;;18.15;;
45408;SDS011;31162;51.076;3.784;2023-04-24T05:51:33;30.42;;;18.80;;
45408;SDS011;31162;51.076;3.784;2023-04-24T05:53:59;25.38;;;18.55;;
45408;SDS011;31162;51.076;3.784;2023-04-24T05:56:25;27.20;;;19.80;;
45408;SDS011;31162;51.076;3.784;2023-04-24T05:58:50;27.45;;;19.77;;
45408;SDS011;31162;51.076;3.784;2023-04-24T06:01:16;29.30;;;19.13;;
45408;SDS011;31162;51.076;3.784;2023-04-24T06:03:41;28.95;;;20.23;;
45408;SDS011;31162;51.076;3.784;2023-04-24T06:06:07;26.88;;;20.17;;
45408;SDS011;31162;51.076;3.784;2023-04-24T06:08:34;36.67;;;21.85;;
45408;SDS011;31162;51.076;3.784;2023-04-24T06:11:00;31.25;;;20.40;;
45408;SDS011;31162;51.076;3.784;2023-04-24T06:13:26;28.08;;;20.27;;
45408;SDS011;31162;51.076;3.784;2023-04-24T06:15:52;31.27;;;21.05;;
45408;SDS011;31162;51.076;3.784;2023-04-24T06:18:20;30.80;;;19.88;;
45408;SDS011;31162;51.076;3.784;2023-04-24T06:20:49;30.33;;;21.05;;
45408;SDS011;31162;51.076;3.784;2023-04-24T06:23:14;34.63;;;21.00;;
45408;SDS011;31162;51.076;3.784;2023-04-24T06:25:40;36.17;;;19.77;;
45408;SDS011;31162;51.076;3.784;2023-04-24T06:28:06;28.90;;;20.38;;
45408;SDS011;31162;51.076;3.784;2023-04-24T06:30:31;31.25;;;19.77;;
45408;SDS011;31162;51.076;3.784;2023-04-24T06:32:57;28.95;;;18.27;;
45408;SDS011;31162;51.076;3.784;2023-04-24T06:35:23;31.77;;;18.30;;
45408;SDS011;31162;51.076;3.784;2023-04-24T06:37:48;28.88;;;17.02;;
45408;SDS011;31162;51.076;3.784;2023-04-24T06:40:14;27.23;;;18.02;;
45408;SDS011;31162;51.076;3.784;2023-04-24T06:42:40;30.35;;;17.42;;
45408;SDS011;31162;51.076;3.784;2023-04-24T06:45:06;25.52;;;15.73;;
45408;SDS011;31162;51.076;3.784;2023-04-24T06:47:32;17.60;;;12.90;;
45408;SDS011;31162;51.076;3.784;2023-04-24T06:49:58;15.70;;;12.18;;
45408;SDS011;31162;51.076;3.784;2023-04-24T06:52:24;15.00;;;9.70;;
45408;SDS011;31162;51.076;3.784;2023-04-24T06:54:50;17.42;;;10.45;;
45408;SDS011;31162;51.076;3.784;2023-04-24T06:57:15;15.15;;;9.13;;
45408;SDS011;31162;51.076;3.784;2023-04-24T06:59:41;14.48;;;8.93;;
45408;SDS011;31162;51.076;3.784;2023-04-24T07:02:09;15.07;;;8.70;;
45408;SDS011;31162;51.076;3.784;2023-04-24T07:04:35;15.43;;;9.55;;
45408;SDS011;31162;51.076;3.784;2023-04-24T07:07:01;16.23;;;8.88;;
45408;SDS011;31162;51.076;3.784;2023-04-24T07:09:27;16.35;;;9.63;;
45408;SDS011;31162;51.076;3.784;2023-04-24T07:11:53;12.00;;;7.90;;
45408;SDS011;31162;51.076;3.784;2023-04-24T07:14:21;12.95;;;8.20;;
45408;SDS011;31162;51.076;3.784;2023-04-24T07:16:47;13.75;;;7.97;;
45408;SDS011;31162;51.076;3.784;2023-04-24T07:19:13;13.98;;;6.35;;
45408;SDS011;31162;51.076;3.784;2023-04-24T07:21:39;16.50;;;6.85;;
45408;SDS011;31162;51.076;3.784;2023-04-24T07:24:05;13.13;;;6.63;;
45408;SDS011;31162;51.076;3.784;2023-04-24T07:26:34;14.80;;;6.60;;
45408;SDS011;31162;51.076;3.784;2023-04-24T07:29:00;14.43;;;5.53;;
45408;SDS011;31162;51.076;3.784;2023-04-24T07:31:26;7.45;;;5.22;;
45408;SDS011;31162;51.076;3.784;2023-04-24T07:33:51;12.25;;;5.78;;
45408;SDS011;31162;51.076;3.784;2023-04-24T07:36:17;10.68;;;4.72;;
45408;SDS011;31162;51.076;3.784;2023-04-24T07:38:44;10.32;;;4.95;;
45408;SDS011;31162;51.076;3.784;2023-04-24T07:41:10;14.27;;;5.28;;
45408;SDS011;31162;51.076;3.784;2023-04-24T07:43:37;9.48;;;4.32;;
45408;SDS011;31162;51.076;3.784;2023-04-24T07:46:03;7.15;;;4.13;;
45408;SDS011;31162;51.076;3.784;2023-04-24T07:48:28;14.07;;;4.55;;
45408;SDS011;31162;51.076;3.784;2023-04-24T07:50:54;11.73;;;4.35;;
45408;SDS011;31162;51.076;3.784;2023-04-24T07:53:20;11.50;;;4.25;;
45408;SDS011;31162;51.076;3.784;2023-04-24T07:55:48;8.68;;;4.53;;
45408;SDS011;31162;51.076;3.784;2023-04-24T07:58:13;14.77;;;6.05;;
45408;SDS011;31162;51.076;3.784;2023-04-24T08:00:40;25.02;;;6.90;;
45408;SDS011;31162;51.076;3.784;2023-04-24T08:03:05;12.13;;;6.05;;
45408;SDS011;31162;51.076;3.784;2023-04-24T08:05:31;12.40;;;5.75;;
45408;SDS011;31162;51.076;3.784;2023-04-24T08:07:57;13.52;;;6.38;;
45408;SDS011;31162;51.076;3.784;2023-04-24T08:10:23;13.13;;;5.90;;
45408;SDS011;31162;51.076;3.784;2023-04-24T08:12:49;9.57;;;4.82;;
45408;SDS011;31162;51.076;3.784;2023-04-24T08:15:15;12.35;;;5.13;;
45408;SDS011;31162;51.076;3.784;2023-04-24T08:17:41;9.32;;;4.22;;
45408;SDS011;31162;51.076;3.784;2023-04-24T08:20:08;10.07;;;4.15;;
45408;SDS011;31162;51.076;3.784;2023-04-24T08:22:38;8.68;;;3.90;;
45408;SDS011;31162;51.076;3.784;2023-04-24T08:25:05;7.55;;;3.50;;
45408;SDS011;31162;51.076;3.784;2023-04-24T08:27:31;8.30;;;3.35;;
45408;SDS011;31162;51.076;3.784;2023-04-24T08:29:57;6.80;;;3.33;;
45408;SDS011;31162;51.076;3.784;2023-04-24T08:32:23;9.63;;;3.88;;
45408;SDS011;31162;51.076;3.784;2023-04-24T08:34:49;11.88;;;4.30;;
45408;SDS011;31162;51.076;3.784;2023-04-24T08:37:17;9.00;;;4.20;;
45408;SDS011;31162;51.076;3.784;2023-04-24T08:39:43;8.50;;;3.83;;
45408;SDS011;31162;51.076;3.784;2023-04-24T08:42:08;8.82;;;3.70;;
45408;SDS011;31162;51.076;3.784;2023-04-24T08:44:36;7.85;;;3.30;;
45408;SDS011;31162;51.076;3.784;2023-04-24T08:47:02;7.47;;;3.22;;
45408;SDS011;31162;51.076;3.784;2023-04-24T08:49:28;8.88;;;3.63;;
45408;SDS011;31162;51.076;3.784;2023-04-24T08:51:54;8.85;;;3.70;;
45408;SDS011;31162;51.076;3.784;2023-04-24T08:54:20;8.57;;;3.50;;
45408;SDS011;31162;51.076;3.784;2023-04-24T08:56:47;8.65;;;3.70;;
45408;SDS011;31162;51.076;3.784;2023-04-24T08:59:14;7.85;;;3.80;;
45408;SDS011;31162;51.076;3.784;2023-04-24T09:01:41;10.20;;;4.28;;
45408;SDS011;31162;51.076;3.784;2023-04-24T09:04:09;9.13;;;3.95;;
45408;SDS011;31162;51.076;3.784;2023-04-24T09:06:39;7.68;;;4.32;;
45408;SDS011;31162;51.076;3.784;2023-04-24T09:09:07;7.30;;;4.18;;
45408;SDS011;31162;51.076;3.784;2023-04-24T09:11:36;8.10;;;4.25;;
45408;SDS011;31162;51.076;3.784;2023-04-24T09:14:02;11.20;;;4.50;;
45408;SDS011;31162;51.076;3.784;2023-04-24T09:16:31;10.48;;;5.07;;
45408;SDS011;31162;51.076;3.784;2023-04-24T09:18:58;9.20;;;4.00;;
45408;SDS011;31162;51.076;3.784;2023-04-24T09:21:23;8.52;;;4.30;;
45408;SDS011;31162;51.076;3.784;2023-04-24T09:24:07;9.18;;;3.85;;
45408;SDS011;31162;51.076;3.784;2023-04-24T09:26:39;7.60;;;3.70;;
45408;SDS011;31162;51.076;3.784;2023-04-24T09:29:05;5.90;;;3.90;;
45408;SDS011;31162;51.076;3.784;2023-04-24T09:31:31;9.27;;;4.05;;
45408;SDS011;31162;51.076;3.784;2023-04-24T09:33:58;6.22;;;3.63;;
45408;SDS011;31162;51.076;3.784;2023-04-24T09:39:01;8.23;;;3.83;;
45408;SDS011;31162;51.076;3.784;2023-04-24T09:41:28;6.40;;;3.20;;
45408;SDS011;31162;51.076;3.784;2023-04-24T09:43:54;8.02;;;3.40;;
45408;SDS011;31162;51.076;3.784;2023-04-24T09:46:21;5.70;;;3.08;;
45408;SDS011;31162;51.076;3.784;2023-04-24T09:48:54;10.63;;;3.45;;
45408;SDS011;31162;51.076;3.784;2023-04-24T09:51:19;5.70;;;3.10;;
45408;SDS011;31162;51.076;3.784;2023-04-24T09:53:59;8.93;;;4.40;;
45408;SDS011;31162;51.076;3.784;2023-04-24T09:56:25;5.20;;;3.05;;
45408;SDS011;31162;51.076;3.784;2023-04-24T09:58:51;9.15;;;3.63;;
45408;SDS011;31162;51.076;3.784;2023-04-24T10:01:28;8.30;;;4.07;;
45408;SDS011;31162;51.076;3.784;2023-04-24T10:03:55;5.90;;;3.33;;
45408;SDS011;31162;51.076;3.784;2023-04-24T10:06:21;6.45;;;3.53;;
45408;SDS011;31162;51.076;3.784;2023-04-24T10:08:47;6.93;;;3.28;;
45408;SDS011;31162;51.076;3.784;2023-04-24T10:11:15;7.95;;;3.28;;
45408;SDS011;31162;51.076;3.784;2023-04-24T10:13:42;6.95;;;3.22;;
45408;SDS011;31162;51.076;3.784;2023-04-24T10:16:08;6.60;;;3.25;;
45408;SDS011;31162;51.076;3.784;2023-04-24T10:18:34;6.82;;;3.60;;
45408;SDS011;31162;51.076;3.784;2023-04-24T10:21:00;6.05;;;3.42;;
45408;SDS011;31162;51.076;3.784;2023-04-24T10:23:27;9.50;;;4.25;;
45408;SDS011;31162;51.076;3.784;2023-04-24T10:25:55;4.55;;;3.45;;
45408;SDS011;31162;51.076;3.784;2023-04-24T10:28:21;6.07;;;3.28;;
45408;SDS011;31162;51.076;3.784;2023-04-24T10:30:49;4.72;;;3.10;;
45408;SDS011;31162;51.076;3.784;2023-04-24T10:33:16;5.65;;;3.33;;
45408;SDS011;31162;51.076;3.784;2023-04-24T10:35:44;6.53;;;3.13;;
45408;SDS011;31162;51.076;3.784;2023-04-24T10:38:14;5.20;;;3.65;;
45408;SDS011;31162;51.076;3.784;2023-04-24T10:40:43;6.00;;;3.20;;
45408;SDS011;31162;51.076;3.784;2023-04-24T10:43:09;4.85;;;2.67;;
45408;SDS011;31162;51.076;3.784;2023-04-24T10:45:36;6.38;;;3.10;;
45408;SDS011;31162;51.076;3.784;2023-04-24T10:48:07;7.75;;;3.35;;
45408;SDS011;31162;51.076;3.784;2023-04-24T10:50:42;6.07;;;2.85;;
45408;SDS011;31162;51.076;3.784;2023-04-24T10:53:12;5.55;;;3.05;;
45408;SDS011;31162;51.076;3.784;2023-04-24T10:55:43;5.22;;;3.17;;
45408;SDS011;31162;51.076;3.784;2023-04-24T10:58:10;5.80;;;3.00;;
45408;SDS011;31162;51.076;3.784;2023-04-24T11:00:37;7.90;;;3.08;;
45408;SDS011;31162;51.076;3.784;2023-04-24T11:03:05;6.30;;;3.10;;
45408;SDS011;31162;51.076;3.784;2023-04-24T11:06:06;6.57;;;3.15;;
45408;SDS011;31162;51.076;3.784;2023-04-24T11:10:58;3.97;;;2.80;;
45408;SDS011;31162;51.076;3.784;2023-04-24T11:14:01;4.82;;;2.22;;
45408;SDS011;31162;51.076;3.784;2023-04-24T11:18:51;4.78;;;2.42;;
45408;SDS011;31162;51.076;3.784;2023-04-24T11:21:24;5.40;;;2.83;;
45408;SDS011;31162;51.076;3.784;2023-04-24T11:23:51;6.30;;;2.83;;
45408;SDS011;31162;51.076;3.784;2023-04-24T11:26:21;6.45;;;2.80;;
45408;SDS011;31162;51.076;3.784;2023-04-24T11:28:49;6.38;;;2.83;;
45408;SDS011;31162;51.076;3.784;2023-04-24T11:31:34;8.85;;;3.05;;
45408;SDS011;31162;51.076;3.784;2023-04-24T11:34:14;5.85;;;3.00;;
45408;SDS011;31162;51.076;3.784;2023-04-24T11:36:44;3.83;;;2.50;;
45408;SDS011;31162;51.076;3.784;2023-04-24T11:39:13;6.88;;;3.03;;
45408;SDS011;31162;51.076;3.784;2023-04-24T11:41:40;4.70;;;2.40;;
45408;SDS011;31162;51.076;3.784;2023-04-24T11:44:07;4.05;;;2.30;;
45408;SDS011;31162;51.076;3.784;2023-04-24T11:46:33;6.70;;;2.90;;
45408;SDS011;31162;51.076;3.784;2023-04-24T11:48:59;3.80;;;2.13;;
45408;SDS011;31162;51.076;3.784;2023-04-24T11:51:26;4.25;;;2.50;;
45408;SDS011;31162;51.076;3.784;2023-04-24T11:53:55;5.57;;;3.03;;
45408;SDS011;31162;51.076;3.784;2023-04-24T11:56:22;7.85;;;2.80;;
45408;SDS011;31162;51.076;3.784;2023-04-24T11:58:48;6.90;;;3.05;;
45408;SDS011;31162;51.076;3.784;2023-04-24T12:01:16;8.20;;;2.50;;
45408;SDS011;31162;51.076;3.784;2023-04-24T12:03:46;6.32;;;2.67;;
45408;SDS011;31162;51.076;3.784;2023-04-24T12:06:13;4.13;;;2.33;;
45408;SDS011;31162;51.076;3.784;2023-04-24T12:08:39;4.55;;;2.10;;
45408;SDS011;31162;51.076;3.784;2023-04-24T12:11:05;3.85;;;2.20;;
45408;SDS011;31162;51.076;3.784;2023-04-24T12:13:32;3.65;;;2.10;;
45408;SDS011;31162;51.076;3.784;2023-04-24T12:15:59;4.25;;;2.05;;
45408;SDS011;31162;51.076;3.784;2023-04-24T12:18:29;2.65;;;1.80;;
45408;SDS011;31162;51.076;3.784;2023-04-24T12:20:54;4.05;;;2.03;;
45408;SDS011;31162;51.076;3.784;2023-04-24T12:23:33;7.45;;;2.30;;
45408;SDS011;31162;51.076;3.784;2023-04-24T12:26:00;5.93;;;1.55;;
45408;SDS011;31162;51.076;3.784;2023-04-24T12:28:36;4.07;;;1.60;;
45408;SDS011;31162;51.076;3.784;2023-04-24T12:31:03;3.92;;;1.20;;
45408;SDS011;31162;51.076;3.784;2023-04-24T12:33:32;3.47;;;1.63;;
45408;SDS011;31162;51.076;3.784;2023-04-24T12:35:59;4.22;;;1.60;;
45408;SDS011;31162;51.076;3.784;2023-04-24T12:38:26;5.32;;;1.50;;
45408;SDS011;31162;51.076;3.784;2023-04-24T12:41:03;4.72;;;1.50;;
45408;SDS011;31162;51.076;3.784;2023-04-24T12:43:30;2.80;;;1.23;;
45408;SDS011;31162;51.076;3.784;2023-04-24T12:45:56;3.30;;;1.20;;
45408;SDS011;31162;51.076;3.784;2023-04-24T12:48:22;4.85;;;1.52;;
45408;SDS011;31162;51.076;3.784;2023-04-24T12:50:47;3.15;;;1.50;;
45408;SDS011;31162;51.076;3.784;2023-04-24T12:53:14;3.88;;;2.15;;
45408;SDS011;31162;51.076;3.784;2023-04-24T12:55:40;1.85;;;0.90;;
45408;SDS011;31162;51.076;3.784;2023-04-24T12:58:06;2.78;;;1.10;;
45408;SDS011;31162;51.076;3.784;2023-04-24T13:00:32;4.05;;;1.55;;
45408;SDS011;31162;51.076;3.784;2023-04-24T13:02:58;3.92;;;1.27;;
45408;SDS011;31162;51.076;3.784;2023-04-24T13:05:24;2.03;;;1.20;;
45408;SDS011;31162;51.076;3.784;2023-04-24T13:07:50;5.60;;;1.83;;
45408;SDS011;31162;51.076;3.784;2023-04-24T13:10:16;5.72;;;1.15;;
45408;SDS011;31162;51.076;3.784;2023-04-24T13:12:45;5.35;;;1.00;;
45408;SDS011;31162;51.076;3.784;2023-04-24T13:15:11;2.03;;;0.93;;
45408;SDS011;31162;51.076;3.784;2023-04-24T13:17:37;2.15;;;1.00;;
45408;SDS011;31162;51.076;3.784;2023-04-24T13:20:03;2.65;;;0.93;;
45408;SDS011;31162;51.076;3.784;2023-04-24T13:22:29;3.40;;;1.30;;
45408;SDS011;31162;51.076;3.784;2023-04-24T13:24:55;3.58;;;1.08;;
45408;SDS011;31162;51.076;3.784;2023-04-24T13:27:24;5.18;;;1.83;;
45408;SDS011;31162;51.076;3.784;2023-04-24T13:29:50;2.53;;;0.93;;
45408;SDS011;31162;51.076;3.784;2023-04-24T13:32:16;3.10;;;1.02;;
45408;SDS011;31162;51.076;3.784;2023-04-24T13:34:42;5.57;;;1.20;;
45408;SDS011;31162;51.076;3.784;2023-04-24T13:37:08;2.63;;;1.00;;
45408;SDS011;31162;51.076;3.784;2023-04-24T13:39:37;3.25;;;1.10;;
45408;SDS011;31162;51.076;3.784;2023-04-24T13:42:02;5.38;;;1.25;;
45408;SDS011;31162;51.076;3.784;2023-04-24T13:44:28;5.22;;;1.25;;
45408;SDS011;31162;51.076;3.784;2023-04-24T13:46:54;5.18;;;1.40;;
45408;SDS011;31162;51.076;3.784;2023-04-24T13:49:22;5.47;;;1.20;;
45408;SDS011;31162;51.076;3.784;2023-04-24T13:51:50;2.85;;;1.13;;
45408;SDS011;31162;51.076;3.784;2023-04-24T13:54:16;4.25;;;1.10;;
45408;SDS011;31162;51.076;3.784;2023-04-24T13:56:44;4.35;;;1.30;;
45408;SDS011;31162;51.076;3.784;2023-04-24T13:59:11;3.60;;;1.00;;
45408;SDS011;31162;51.076;3.784;2023-04-24T14:01:40;4.95;;;1.10;;
45408;SDS011;31162;51.076;3.784;2023-04-24T14:04:06;2.58;;;0.82;;
45408;SDS011;31162;51.076;3.784;2023-04-24T14:06:31;2.35;;;1.00;;
45408;SDS011;31162;51.076;3.784;2023-04-24T14:08:57;25.15;;;2.85;;
45408;SDS011;31162;51.076;3.784;2023-04-24T14:11:23;13.90;;;2.35;;
45408;SDS011;31162;51.076;3.784;2023-04-24T14:13:48;2.17;;;0.85;;
45408;SDS011;31162;51.076;3.784;2023-04-24T14:16:14;1.30;;;0.80;;
45408;SDS011;31162;51.076;3.784;2023-04-24T14:18:40;3.28;;;1.20;;
45408;SDS011;31162;51.076;3.784;2023-04-24T14:21:06;1.40;;;0.90;;
45408;SDS011;31162;51.076;3.784;2023-04-24T14:23:32;2.10;;;0.90;;
45408;SDS011;31162;51.076;3.784;2023-04-24T14:25:58;1.88;;;1.23;;
45408;SDS011;31162;51.076;3.784;2023-04-24T14:28:24;6.40;;;1.40;;
45408;SDS011;31162;51.076;3.784;2023-04-24T14:30:53;4.32;;;1.10;;
45408;SDS011;31162;51.076;3.784;2023-04-24T14:33:18;5.07;;;1.00;;
45408;SDS011;31162;51.076;3.784;2023-04-24T14:35:44;1.92;;;1.00;;
45408;SDS011;31162;51.076;3.784;2023-04-24T14:38:10;4.78;;;1.00;;